createdAt,value
2022-10-24T00:00:28.382Z,9.00
2022-10-24T00:02:59.785Z,8.80
2022-10-24T00:05:29.206Z,8.95
2022-10-24T00:07:58.159Z,8.82
2022-10-24T00:10:28.407Z,8.80
2022-10-24T00:12:57.371Z,8.65
2022-10-24T00:15:26.589Z,9.30
2022-10-24T00:20:32.416Z,8.65
2022-10-24T00:23:06.647Z,8.60
2022-10-24T00:25:36.113Z,8.60
2022-10-24T00:28:05.342Z,8.10
2022-10-24T00:30:34.474Z,7.28
2022-10-24T00:33:03.705Z,6.25
2022-10-24T00:35:35.144Z,5.55
2022-10-24T00:38:04.385Z,5.55
2022-10-24T00:40:33.513Z,5.45
2022-10-24T00:43:03.711Z,5.82
2022-10-24T00:45:41.162Z,5.85
2022-10-24T00:48:18.250Z,5.55
2022-10-24T00:50:52.224Z,5.22
2022-10-24T00:53:23.485Z,4.97
2022-10-24T00:55:55.582Z,5.40
2022-10-24T01:01:10.003Z,5.70
2022-10-24T01:03:39.193Z,6.10
2022-10-24T01:06:45.358Z,6.38
2022-10-24T01:09:31.322Z,6.40
2022-10-24T01:12:10.326Z,6.25
2022-10-24T01:14:49.692Z,6.40
2022-10-24T01:17:29.974Z,7.25
2022-10-24T01:20:22.654Z,6.72
2022-10-24T01:23:09.079Z,7.25
2022-10-24T01:25:53.649Z,7.72
2022-10-24T01:28:26.434Z,7.50
2022-10-24T01:31:07.775Z,7.68
2022-10-24T01:33:47.469Z,7.53
2022-10-24T01:36:35.047Z,8.05
2022-10-24T01:39:15.667Z,7.77
2022-10-24T01:41:52.245Z,8.60
2022-10-24T01:44:27.080Z,7.60
2022-10-24T01:47:03.909Z,8.23
2022-10-24T01:49:36.496Z,8.25
2022-10-24T01:52:11.203Z,7.80
2022-10-24T01:54:51.674Z,8.63
2022-10-24T01:57:20.956Z,7.68
2022-10-24T01:59:50.882Z,8.77
2022-10-24T02:05:12.133Z,9.13
2022-10-24T02:07:50.706Z,9.40
2022-10-24T02:10:27.992Z,9.27
2022-10-24T02:13:03.847Z,8.75
2022-10-24T02:15:36.906Z,9.20
2022-10-24T02:18:10.267Z,8.95
2022-10-24T02:21:01.414Z,9.25
2022-10-24T02:23:38.177Z,9.60
2022-10-24T02:26:12.839Z,9.23
2022-10-24T02:28:52.295Z,9.57
2022-10-24T02:31:24.649Z,8.40
2022-10-24T02:34:03.544Z,9.25
2022-10-24T02:36:34.523Z,9.43
2022-10-24T02:39:07.292Z,9.43
2022-10-24T02:41:39.436Z,9.55
2022-10-24T02:44:13.990Z,8.52
2022-10-24T02:46:44.818Z,9.93
2022-10-24T02:49:16.120Z,7.63
2022-10-24T02:51:52.721Z,10.15
2022-10-24T02:54:22.106Z,9.55
2022-10-24T02:56:55.465Z,9.82
2022-10-24T02:59:24.768Z,9.38
2022-10-24T03:01:54.020Z,11.75
2022-10-24T03:04:30.202Z,10.82
2022-10-24T03:06:59.355Z,11.23
2022-10-24T03:09:28.361Z,10.52
2022-10-24T03:11:57.734Z,11.82
2022-10-24T03:14:26.688Z,10.88
2022-10-24T03:16:55.861Z,12.75
2022-10-24T03:19:30.122Z,11.35
2022-10-24T03:22:01.714Z,11.27
2022-10-24T03:24:43.657Z,12.55
2022-10-24T03:27:14.905Z,12.52
2022-10-24T03:29:43.950Z,11.38
2022-10-24T03:32:13.149Z,11.55
2022-10-24T03:34:47.360Z,11.20
2022-10-24T03:37:18.591Z,11.30
2022-10-24T03:39:47.986Z,11.13
2022-10-24T03:42:17.011Z,11.65
2022-10-24T03:44:51.214Z,11.23
2022-10-24T03:47:20.550Z,10.30
2022-10-24T03:49:49.623Z,10.05
2022-10-24T03:52:28.250Z,11.95
2022-10-24T03:54:57.717Z,10.43
2022-10-24T03:57:26.787Z,10.43
2022-10-24T03:59:56.013Z,11.35
2022-10-24T04:02:25.077Z,12.00
2022-10-24T04:04:54.232Z,9.73
2022-10-24T04:07:23.324Z,11.23
2022-10-24T04:09:55.142Z,10.82
2022-10-24T04:12:29.728Z,10.90
2022-10-24T04:15:04.984Z,8.63
2022-10-24T04:20:11.076Z,10.27
2022-10-24T04:22:40.407Z,10.45
2022-10-24T04:25:12.030Z,10.18
2022-10-24T04:27:42.387Z,11.23
2022-10-24T04:30:16.695Z,8.95
2022-10-24T04:32:46.746Z,8.15
2022-10-24T04:35:16.297Z,9.98
2022-10-24T04:37:45.397Z,8.90
2022-10-24T04:40:17.175Z,9.30
2022-10-24T04:42:46.555Z,8.98
2022-10-24T04:45:15.809Z,8.18
2022-10-24T04:47:45.584Z,8.25
2022-10-24T04:50:19.923Z,6.70
2022-10-24T04:52:49.157Z,7.18
2022-10-24T04:55:20.230Z,7.72
2022-10-24T04:57:49.479Z,6.82
2022-10-24T05:00:19.175Z,7.18
2022-10-24T05:05:23.700Z,6.40
2022-10-24T05:07:53.215Z,7.28
2022-10-24T05:10:24.389Z,6.22
2022-10-24T05:12:58.660Z,6.53
2022-10-24T05:15:29.691Z,6.90
2022-10-24T05:17:59.203Z,6.63
2022-10-24T05:20:29.017Z,6.40
2022-10-24T05:22:58.441Z,5.20
2022-10-24T05:25:29.747Z,6.22
2022-10-24T05:27:58.965Z,7.15
2022-10-24T05:30:28.134Z,7.00
2022-10-24T05:33:20.088Z,7.03
2022-10-24T05:35:49.210Z,7.40
2022-10-24T05:38:18.258Z,5.72
2022-10-24T05:40:50.935Z,5.47
2022-10-24T05:43:20.601Z,5.85
2022-10-24T05:48:39.987Z,6.25
2022-10-24T05:51:09.149Z,5.85
2022-10-24T05:53:38.240Z,5.90
2022-10-24T05:56:09.864Z,5.60
2022-10-24T05:58:38.904Z,6.30
2022-10-24T06:01:08.026Z,5.70
2022-10-24T06:03:39.123Z,6.03
2022-10-24T06:06:09.429Z,5.60
2022-10-24T06:08:44.680Z,5.43
2022-10-24T06:11:16.242Z,5.45
2022-10-24T06:13:50.494Z,5.32
2022-10-24T06:16:19.501Z,5.88
2022-10-24T06:18:48.748Z,5.57
2022-10-24T06:21:18.170Z,5.65
2022-10-24T06:23:47.303Z,6.30
2022-10-24T06:26:21.643Z,5.78
2022-10-24T06:28:58.270Z,5.60
2022-10-24T06:31:27.588Z,4.68
2022-10-24T06:33:58.590Z,5.93
2022-10-24T06:36:30.635Z,6.65
2022-10-24T06:39:00.854Z,5.20
2022-10-24T06:41:31.949Z,7.05
2022-10-24T06:44:01.231Z,6.22
2022-10-24T06:46:35.428Z,6.55
2022-10-24T06:49:04.507Z,6.38
2022-10-24T06:51:40.571Z,6.50
2022-10-24T06:54:15.006Z,6.18
2022-10-24T06:56:46.249Z,5.93
2022-10-24T06:59:17.910Z,6.30
2022-10-24T07:01:47.707Z,6.30
2022-10-24T07:04:17.046Z,6.28
2022-10-24T07:06:46.147Z,6.25
2022-10-24T07:09:20.388Z,6.32
2022-10-24T07:11:51.573Z,5.20
2022-10-24T07:14:26.151Z,4.50
2022-10-24T07:16:55.248Z,5.18
2022-10-24T07:19:24.522Z,5.13
2022-10-24T07:21:53.886Z,5.45
2022-10-24T07:24:23.585Z,5.22
2022-10-24T07:26:54.713Z,5.10
2022-10-24T07:29:23.855Z,5.53
2022-10-24T07:31:59.131Z,5.15
2022-10-24T07:34:28.356Z,5.47
2022-10-24T07:36:57.466Z,5.20
2022-10-24T07:39:26.657Z,5.07
2022-10-24T07:41:57.823Z,3.97
2022-10-24T07:44:32.276Z,5.38
2022-10-24T07:47:01.489Z,4.55
2022-10-24T07:49:32.965Z,5.10
2022-10-24T07:52:03.070Z,4.68
2022-10-24T07:54:36.126Z,5.05
2022-10-24T07:57:08.637Z,4.53
2022-10-24T07:59:42.174Z,5.45
2022-10-24T08:02:18.043Z,5.00
2022-10-24T08:04:47.317Z,5.03
2022-10-24T08:07:16.362Z,4.45
2022-10-24T08:09:50.537Z,4.55
2022-10-24T08:14:56.277Z,4.47
2022-10-24T08:17:25.270Z,3.83
2022-10-24T08:19:54.793Z,4.50
2022-10-24T08:22:25.556Z,4.22
2022-10-24T08:24:54.782Z,3.83
2022-10-24T08:27:32.776Z,3.88
2022-10-24T08:30:02.086Z,4.03
2022-10-24T08:32:32.297Z,4.00
2022-10-24T08:35:01.530Z,4.30
2022-10-24T08:37:32.128Z,2.90
2022-10-24T08:40:09.295Z,3.90
2022-10-24T08:42:40.714Z,2.97
2022-10-24T08:45:22.216Z,3.45
2022-10-24T08:47:59.535Z,2.30
2022-10-24T08:50:33.157Z,3.45
2022-10-24T08:53:05.978Z,2.50
2022-10-24T08:55:49.450Z,1.88
2022-10-24T08:58:25.342Z,2.20
2022-10-24T09:01:04.789Z,1.58
2022-10-24T09:03:55.037Z,2.20
2022-10-24T09:06:27.641Z,2.03
2022-10-24T09:09:00.216Z,1.75
2022-10-24T09:11:45.241Z,2.00
2022-10-24T09:14:24.114Z,1.60
2022-10-24T09:16:56.615Z,2.22
2022-10-24T09:19:28.065Z,1.95
2022-10-24T09:21:59.745Z,1.55
2022-10-24T09:24:41.311Z,1.83
2022-10-24T09:27:17.055Z,1.83
2022-10-24T09:29:48.513Z,2.15
2022-10-24T09:32:30.549Z,2.60
2022-10-24T09:35:02.411Z,2.40
2022-10-24T09:37:44.499Z,2.10
2022-10-24T09:40:23.665Z,2.40
2022-10-24T09:42:57.596Z,2.53
2022-10-24T09:45:40.373Z,2.72
2022-10-24T09:48:20.760Z,2.60
2022-10-24T09:50:53.219Z,2.53
2022-10-24T09:53:28.942Z,2.58
2022-10-24T09:56:01.396Z,2.42
2022-10-24T09:58:35.113Z,2.40
2022-10-24T10:01:18.924Z,2.50
2022-10-24T10:04:07.606Z,2.40
2022-10-24T10:06:46.267Z,2.30
2022-10-24T10:09:22.292Z,1.55
2022-10-24T10:12:05.036Z,2.20
2022-10-24T10:14:42.214Z,2.72
2022-10-24T10:17:23.999Z,2.60
2022-10-24T10:19:58.304Z,2.70
2022-10-24T10:22:29.218Z,2.85
2022-10-24T10:24:58.656Z,2.60
2022-10-24T10:27:32.629Z,1.83
2022-10-24T10:30:19.879Z,2.30
2022-10-24T10:32:59.670Z,2.22
2022-10-24T10:35:36.423Z,1.58
2022-10-24T10:38:15.517Z,1.88
2022-10-24T10:40:48.673Z,1.40
2022-10-24T10:43:31.521Z,1.65
2022-10-24T10:46:13.272Z,1.60
2022-10-24T10:48:57.002Z,1.52
2022-10-24T10:51:37.030Z,1.40
2022-10-24T10:54:21.353Z,1.20
2022-10-24T10:56:53.893Z,1.52
2022-10-24T10:59:37.221Z,1.58
2022-10-24T11:02:31.908Z,1.65
2022-10-24T11:05:11.289Z,2.05
2022-10-24T11:07:47.758Z,1.17
2022-10-24T11:10:21.438Z,1.30
2022-10-24T11:12:51.203Z,1.33
2022-10-24T11:15:26.129Z,1.40
2022-10-24T11:18:01.134Z,1.42
2022-10-24T11:20:37.335Z,1.55
2022-10-24T11:23:14.585Z,1.60
2022-10-24T11:25:47.487Z,1.42
2022-10-24T11:28:33.116Z,1.35
2022-10-24T11:31:13.159Z,1.40
2022-10-24T11:33:47.260Z,1.70
2022-10-24T11:36:23.599Z,1.60
2022-10-24T11:39:04.169Z,1.40
2022-10-24T11:41:59.875Z,1.20
2022-10-24T11:44:42.162Z,1.40
2022-10-24T11:47:37.702Z,1.13
2022-10-24T11:50:21.871Z,0.85
2022-10-24T11:53:00.607Z,1.40
2022-10-24T12:01:01.780Z,1.10
2022-10-24T12:03:47.407Z,1.02
2022-10-24T12:06:36.984Z,1.25
2022-10-24T12:12:42.487Z,1.35
2022-10-24T12:15:39.009Z,1.23
2022-10-24T12:18:15.106Z,1.10
2022-10-24T12:20:44.723Z,1.20
2022-10-24T12:23:22.597Z,1.20
2022-10-24T12:26:04.300Z,1.30
2022-10-24T12:28:39.992Z,1.42
2022-10-24T12:31:23.835Z,1.30
2022-10-24T12:34:26.938Z,1.27
2022-10-24T12:37:37.906Z,1.27
2022-10-24T12:40:41.855Z,1.00
2022-10-24T12:43:29.639Z,1.02
2022-10-24T12:46:01.053Z,1.00
2022-10-24T12:56:23.775Z,1.05
2022-10-24T12:59:05.039Z,0.50
2022-10-24T13:01:37.880Z,0.70
2022-10-24T13:04:36.981Z,0.95
2022-10-24T13:07:51.778Z,0.75
2022-10-24T13:10:35.201Z,1.00
2022-10-24T13:13:33.978Z,1.00
2022-10-24T13:16:09.168Z,1.00
2022-10-24T13:18:48.972Z,1.10
2022-10-24T13:21:24.609Z,0.93
2022-10-24T13:23:54.571Z,0.63
2022-10-24T13:26:43.338Z,1.10
2022-10-24T13:29:38.779Z,0.70
2022-10-24T13:32:35.817Z,1.00
2022-10-24T13:35:07.609Z,0.85
2022-10-24T13:37:42.406Z,0.68
2022-10-24T13:40:16.970Z,0.70
2022-10-24T13:42:54.229Z,0.70
2022-10-24T13:45:30.504Z,0.80
2022-10-24T13:48:03.930Z,0.70
2022-10-24T13:50:49.158Z,0.90
2022-10-24T13:53:28.439Z,1.10
2022-10-24T13:56:10.173Z,0.82
2022-10-24T13:58:44.245Z,0.88
2022-10-24T14:01:20.728Z,0.68
2022-10-24T14:03:51.372Z,1.23
2022-10-24T14:06:26.445Z,1.08
2022-10-24T14:09:06.483Z,0.90
2022-10-24T14:11:41.264Z,1.20
2022-10-24T14:14:26.214Z,1.38
2022-10-24T14:17:22.733Z,0.90
2022-10-24T14:19:59.608Z,1.10
2022-10-24T14:22:31.034Z,0.68
2022-10-24T14:25:00.233Z,0.90
2022-10-24T14:30:07.045Z,1.05
2022-10-24T14:32:38.443Z,1.23
2022-10-24T14:35:08.596Z,1.13
2022-10-24T14:37:43.762Z,0.98
2022-10-24T14:40:19.160Z,1.02
2022-10-24T14:42:49.878Z,1.30
2022-10-24T14:45:27.382Z,1.10
2022-10-24T14:48:02.889Z,1.20
2022-10-24T14:50:36.835Z,1.13
2022-10-24T14:53:06.398Z,1.42
2022-10-24T14:55:37.017Z,1.23
2022-10-24T14:58:06.366Z,1.02
2022-10-24T15:00:40.054Z,1.33
2022-10-24T15:03:12.349Z,1.08
2022-10-24T15:05:42.203Z,1.20
2022-10-24T15:08:35.537Z,1.20
2022-10-24T15:11:08.269Z,1.10
2022-10-24T15:13:48.226Z,2.25
2022-10-24T15:16:34.860Z,1.05
2022-10-24T15:19:08.077Z,1.20
2022-10-24T15:21:42.173Z,1.20
2022-10-24T15:24:23.989Z,1.15
2022-10-24T15:26:53.775Z,0.80
2022-10-24T15:29:28.341Z,1.05
2022-10-24T15:32:02.731Z,0.95
2022-10-24T15:34:34.219Z,1.13
2022-10-24T15:37:04.064Z,1.20
2022-10-24T15:39:33.063Z,1.15
2022-10-24T15:44:51.483Z,1.50
2022-10-24T15:47:23.640Z,1.05
2022-10-24T15:49:54.836Z,1.20
2022-10-24T15:52:23.986Z,1.90
2022-10-24T15:54:53.144Z,1.60
2022-10-24T15:57:22.454Z,1.55
2022-10-24T15:59:51.513Z,1.88
2022-10-24T16:02:26.894Z,1.50
2022-10-24T16:04:57.969Z,1.63
2022-10-24T16:07:27.375Z,1.60
2022-10-24T16:09:56.743Z,1.90
2022-10-24T16:12:26.050Z,1.70
2022-10-24T16:14:55.107Z,1.65
2022-10-24T16:17:24.259Z,1.50
2022-10-24T16:19:53.286Z,1.58
2022-10-24T16:22:24.387Z,1.50
2022-10-24T16:24:58.641Z,1.73
2022-10-24T16:27:28.034Z,1.70
2022-10-24T16:29:57.045Z,1.70
2022-10-24T16:32:26.316Z,2.20
2022-10-24T16:34:57.199Z,2.13
2022-10-24T16:37:28.336Z,2.45
2022-10-24T16:40:02.721Z,1.67
2022-10-24T16:42:32.438Z,1.95
2022-10-24T16:45:02.025Z,2.08
2022-10-24T16:47:35.142Z,2.30
2022-10-24T16:50:05.129Z,2.30
2022-10-24T16:52:41.228Z,2.17
2022-10-24T16:55:13.451Z,2.17
2022-10-24T16:57:48.422Z,2.20
2022-10-24T17:00:20.101Z,2.20
2022-10-24T17:02:51.275Z,2.47
2022-10-24T17:05:22.707Z,2.22
2022-10-24T17:07:59.066Z,2.20
2022-10-24T17:10:28.406Z,2.50
2022-10-24T17:13:00.579Z,2.20
2022-10-24T17:15:29.888Z,2.58
2022-10-24T17:17:58.915Z,2.20
2022-10-24T17:20:28.019Z,2.60
2022-10-24T17:23:03.038Z,2.38
2022-10-24T17:25:35.091Z,3.15
2022-10-24T17:28:04.385Z,2.55
2022-10-24T17:30:41.568Z,1.95
2022-10-24T17:33:12.142Z,2.22
2022-10-24T17:35:48.065Z,2.20
2022-10-24T17:38:36.721Z,2.53
2022-10-24T17:41:15.598Z,2.38
2022-10-24T17:43:45.530Z,2.08
2022-10-24T17:46:15.938Z,2.50
2022-10-24T17:48:45.031Z,2.42
2022-10-24T17:51:17.498Z,2.40
2022-10-24T17:53:48.987Z,2.45
2022-10-24T17:56:20.625Z,2.42
2022-10-24T17:58:52.481Z,2.38
2022-10-24T18:01:27.274Z,2.03
2022-10-24T18:03:56.648Z,2.35
2022-10-24T18:06:26.177Z,2.72
2022-10-24T18:08:58.282Z,2.83
2022-10-24T18:11:33.546Z,2.40
2022-10-24T18:14:08.242Z,2.10
2022-10-24T18:16:39.947Z,2.10
2022-10-24T18:19:09.376Z,1.90
2022-10-24T18:21:38.972Z,2.03
2022-10-24T18:24:11.415Z,2.40
2022-10-24T18:26:40.929Z,2.13
2022-10-24T18:29:10.128Z,2.38
2022-10-24T18:31:39.410Z,2.08
2022-10-24T18:34:08.922Z,2.00
2022-10-24T18:36:38.971Z,2.20
2022-10-24T18:39:08.106Z,1.98
2022-10-24T18:41:46.137Z,1.92
2022-10-24T18:44:27.537Z,2.05
2022-10-24T18:47:00.755Z,2.10
2022-10-24T18:49:31.194Z,1.90
2022-10-24T18:52:09.297Z,2.28
2022-10-24T18:57:28.596Z,2.05
2022-10-24T19:00:03.387Z,2.00
2022-10-24T19:02:37.789Z,1.92
2022-10-24T19:05:16.095Z,2.03
2022-10-24T19:07:52.001Z,2.38
2022-10-24T19:10:25.525Z,1.60
2022-10-24T19:12:57.120Z,1.77
2022-10-24T19:15:33.769Z,1.70
2022-10-24T19:18:03.106Z,1.90
2022-10-24T19:23:17.412Z,1.67
2022-10-24T19:25:46.934Z,1.92
2022-10-24T19:28:20.642Z,1.80
2022-10-24T19:30:53.192Z,1.88
2022-10-24T19:33:29.035Z,1.60
2022-10-24T19:35:58.590Z,1.80
2022-10-24T19:38:28.010Z,2.05
2022-10-24T19:40:58.207Z,1.70
2022-10-24T19:43:34.606Z,1.60
2022-10-24T19:46:19.403Z,1.60
2022-10-24T19:48:51.459Z,1.70
2022-10-24T19:51:22.653Z,2.00
2022-10-24T19:53:53.728Z,1.70
2022-10-24T19:56:30.847Z,1.97
2022-10-24T19:59:02.309Z,1.65
2022-10-24T20:01:32.209Z,1.48
2022-10-24T20:04:02.439Z,1.70
2022-10-24T20:06:31.672Z,1.60
2022-10-24T20:09:00.935Z,1.52
2022-10-24T20:11:30.566Z,1.80
2022-10-24T20:14:01.828Z,1.35
2022-10-24T20:16:31.782Z,1.80
2022-10-24T20:19:01.040Z,2.00
2022-10-24T20:21:30.437Z,1.77
2022-10-24T20:24:04.753Z,1.65
2022-10-24T20:26:33.927Z,1.52
2022-10-24T20:29:05.869Z,1.90
2022-10-24T20:31:37.723Z,2.22
2022-10-24T20:34:23.459Z,1.90
2022-10-24T20:36:52.777Z,1.73
2022-10-24T20:39:32.017Z,1.48
2022-10-24T20:42:01.342Z,1.58
2022-10-24T20:44:32.481Z,1.70
2022-10-24T20:47:01.598Z,1.90
2022-10-24T20:49:31.609Z,1.73
2022-10-24T20:52:01.100Z,1.48
2022-10-24T20:54:30.370Z,1.50
2022-10-24T20:56:59.538Z,2.60
2022-10-24T20:59:28.753Z,1.50
2022-10-24T21:01:59.902Z,1.70
2022-10-24T21:04:30.250Z,1.50
2022-10-24T21:06:59.435Z,1.70
2022-10-24T21:09:28.802Z,1.70
2022-10-24T21:11:58.041Z,1.75
2022-10-24T21:14:27.328Z,1.60
2022-10-24T21:17:03.607Z,1.50
2022-10-24T21:19:32.722Z,1.90
2022-10-24T21:22:01.795Z,1.55
2022-10-24T21:24:32.197Z,1.42
2022-10-24T21:27:01.388Z,1.95
2022-10-24T21:29:34.311Z,1.80
2022-10-24T21:32:11.234Z,1.58
2022-10-24T21:34:40.836Z,1.33
2022-10-24T21:37:09.903Z,1.83
2022-10-24T21:39:44.537Z,1.58
2022-10-24T21:42:13.718Z,1.52
2022-10-24T21:44:46.671Z,1.75
2022-10-24T21:47:17.727Z,1.80
2022-10-24T21:49:46.830Z,1.52
2022-10-24T21:52:15.833Z,1.80
2022-10-24T21:54:45.026Z,1.55
2022-10-24T21:57:14.226Z,1.50
2022-10-24T21:59:43.399Z,1.50
2022-10-24T22:02:12.671Z,1.70
2022-10-24T22:10:01.488Z,1.52
2022-10-24T22:12:32.525Z,1.60
2022-10-24T22:15:06.719Z,1.50
2022-10-24T22:17:35.877Z,1.80
2022-10-24T22:20:08.347Z,1.75
2022-10-24T22:22:37.684Z,1.90
2022-10-24T22:25:08.191Z,2.08
2022-10-24T22:27:47.617Z,1.60
2022-10-24T22:30:17.688Z,2.10
2022-10-24T22:32:47.470Z,1.67
2022-10-24T22:35:20.384Z,1.63
2022-10-24T22:37:50.062Z,1.67
2022-10-24T22:40:25.684Z,1.90
2022-10-24T22:42:56.031Z,1.92
2022-10-24T22:45:26.274Z,1.80
2022-10-24T22:48:12.135Z,2.60
2022-10-24T22:50:51.187Z,1.90
2022-10-24T22:53:23.234Z,1.90
2022-10-24T22:56:04.674Z,1.77
2022-10-24T22:58:34.907Z,1.67
2022-10-24T23:01:11.351Z,1.80
2022-10-24T23:04:00.478Z,1.88
2022-10-24T23:06:37.011Z,2.08
2022-10-24T23:09:06.219Z,2.00
2022-10-24T23:11:35.670Z,2.00
2022-10-24T23:14:05.589Z,1.92
2022-10-24T23:16:40.795Z,1.67
2022-10-24T23:19:25.522Z,1.45
2022-10-24T23:21:59.791Z,1.92
2022-10-24T23:24:29.780Z,1.60
2022-10-24T23:27:19.089Z,1.73
2022-10-24T23:29:49.709Z,1.55
2022-10-24T23:32:22.898Z,1.83
2022-10-24T23:34:53.209Z,1.60
2022-10-24T23:37:32.300Z,1.80
2022-10-24T23:40:03.162Z,1.83
2022-10-24T23:42:33.202Z,1.70
2022-10-24T23:45:13.620Z,1.90
2022-10-24T23:47:57.204Z,1.67
2022-10-24T23:50:40.103Z,1.67
2022-10-24T23:53:31.997Z,1.88
2022-10-24T23:56:07.977Z,1.80
2022-10-24T23:58:42.153Z,1.73
